sensor_id;sensor_type;location;lat;lon;timestamp;pressure;altitude;pressure_sealevel;temperature;humidity
52651;BME280;38537;47.226;39.702;2023-08-17T00:00:13;100602.66;;;25.28;45.92
52651;BME280;38537;47.226;39.702;2023-08-17T00:02:41;100628.41;;;25.39;45.99
52651;BME280;38537;47.226;39.702;2023-08-17T00:05:08;100597.75;;;25.28;45.90
52651;BME280;38537;47.226;39.702;2023-08-17T00:07:36;100597.34;;;25.30;45.71
52651;BME280;38537;47.226;39.702;2023-08-17T00:10:05;100610.41;;;25.35;45.73
52651;BME280;38537;47.226;39.702;2023-08-17T00:12:32;100608.38;;;25.35;45.25
52651;BME280;38537;47.226;39.702;2023-08-17T00:15:00;100607.16;;;25.36;45.18
52651;BME280;38537;47.226;39.702;2023-08-17T00:17:31;100634.13;;;25.39;45.40
52651;BME280;38537;47.226;39.702;2023-08-17T00:19:58;100600.22;;;25.30;44.99
52651;BME280;38537;47.226;39.702;2023-08-17T00:22:30;100615.31;;;25.38;44.92
52651;BME280;38537;47.226;39.702;2023-08-17T00:24:57;100618.63;;;25.47;44.89
52651;BME280;38537;47.226;39.702;2023-08-17T00:27:25;100609.22;;;25.39;44.93
52651;BME280;38537;47.226;39.702;2023-08-17T00:29:53;100619.81;;;25.39;44.95
52651;BME280;38537;47.226;39.702;2023-08-17T00:32:25;100605.09;;;25.37;45.06
52651;BME280;38537;47.226;39.702;2023-08-17T00:34:52;100600.19;;;25.34;44.98
52651;BME280;38537;47.226;39.702;2023-08-17T00:37:20;100613.69;;;25.33;44.85
52651;BME280;38537;47.226;39.702;2023-08-17T00:39:49;100616.53;;;25.30;44.97
52651;BME280;38537;47.226;39.702;2023-08-17T00:42:17;100617.34;;;25.34;44.86
52651;BME280;38537;47.226;39.702;2023-08-17T00:44:44;100632.06;;;25.32;44.99
52651;BME280;38537;47.226;39.702;2023-08-17T00:47:12;100615.28;;;25.23;45.38
52651;BME280;38537;47.226;39.702;2023-08-17T00:49:40;100634.06;;;25.24;45.21
52651;BME280;38537;47.226;39.702;2023-08-17T00:52:08;100618.91;;;25.10;45.64
52651;BME280;38537;47.226;39.702;2023-08-17T00:54:35;100605.41;;;25.07;45.62
52651;BME280;38537;47.226;39.702;2023-08-17T00:57:02;100607.41;;;24.99;46.03
52651;BME280;38537;47.226;39.702;2023-08-17T00:59:33;100616.41;;;25.01;45.92
52651;BME280;38537;47.226;39.702;2023-08-17T01:02:03;100622.91;;;24.98;46.16
52651;BME280;38537;47.226;39.702;2023-08-17T01:04:32;100630.72;;;25.05;45.91
52651;BME280;38537;47.226;39.702;2023-08-17T01:06:59;100625.78;;;24.98;46.16
52651;BME280;38537;47.226;39.702;2023-08-17T01:09:27;100627.41;;;24.99;46.35
52651;BME280;38537;47.226;39.702;2023-08-17T01:17:28;100638.75;;;24.88;46.81
52651;BME280;38537;47.226;39.702;2023-08-17T01:19:58;100622.72;;;24.73;46.74
52651;BME280;38537;47.226;39.702;2023-08-17T01:22:27;100618.63;;;24.71;46.91
52651;BME280;38537;47.226;39.702;2023-08-17T01:24:57;100612.91;;;24.67;47.23
52651;BME280;38537;47.226;39.702;2023-08-17T01:27:24;100623.09;;;24.65;47.39
52651;BME280;38537;47.226;39.702;2023-08-17T01:29:52;100621.47;;;24.64;47.32
52651;BME280;38537;47.226;39.702;2023-08-17T01:32:28;100608.31;;;24.52;47.79
52651;BME280;38537;47.226;39.702;2023-08-17T01:35:02;100599.72;;;24.48;47.28
52651;BME280;38537;47.226;39.702;2023-08-17T01:37:33;100612.00;;;24.52;47.84
52651;BME280;38537;47.226;39.702;2023-08-17T01:40:02;100625.47;;;24.55;47.70
52651;BME280;38537;47.226;39.702;2023-08-17T01:42:32;100628.66;;;24.47;47.62
52651;BME280;38537;47.226;39.702;2023-08-17T01:45:01;100611.47;;;24.36;48.06
52651;BME280;38537;47.226;39.702;2023-08-17T01:47:31;100609.81;;;24.35;48.01
52651;BME280;38537;47.226;39.702;2023-08-17T01:49:59;100606.13;;;24.31;48.18
52651;BME280;38537;47.226;39.702;2023-08-17T01:52:29;100623.75;;;24.40;48.11
52651;BME280;38537;47.226;39.702;2023-08-17T01:54:57;100604.41;;;24.23;48.61
52651;BME280;38537;47.226;39.702;2023-08-17T01:57:24;100601.91;;;24.18;48.59
52651;BME280;38537;47.226;39.702;2023-08-17T01:59:52;100617.50;;;24.24;48.67
52651;BME280;38537;47.226;39.702;2023-08-17T02:02:19;100608.06;;;24.20;49.00
52651;BME280;38537;47.226;39.702;2023-08-17T02:04:49;100612.94;;;24.19;48.96
52651;BME280;38537;47.226;39.702;2023-08-17T02:07:16;100617.81;;;24.19;49.09
52651;BME280;38537;47.226;39.702;2023-08-17T02:09:47;100605.44;;;24.04;49.39
52651;BME280;38537;47.226;39.702;2023-08-17T02:12:14;100602.19;;;24.02;49.45
52651;BME280;38537;47.226;39.702;2023-08-17T02:14:42;100617.75;;;24.12;49.65
52651;BME280;38537;47.226;39.702;2023-08-17T02:17:09;100610.72;;;23.99;49.81
52651;BME280;38537;47.226;39.702;2023-08-17T02:19:37;100620.13;;;24.03;49.65
52651;BME280;38537;47.226;39.702;2023-08-17T02:22:05;100604.59;;;23.97;49.87
52651;BME280;38537;47.226;39.702;2023-08-17T02:24:32;100620.91;;;24.00;50.18
52651;BME280;38537;47.226;39.702;2023-08-17T02:26:59;100622.59;;;24.08;50.19
52651;BME280;38537;47.226;39.702;2023-08-17T02:29:27;100611.50;;;23.96;49.90
52651;BME280;38537;47.226;39.702;2023-08-17T02:31:54;100626.66;;;24.03;50.33
52651;BME280;38537;47.226;39.702;2023-08-17T02:34:25;100614.72;;;23.90;50.27
52651;BME280;38537;47.226;39.702;2023-08-17T02:36:52;100615.97;;;23.93;50.41
52651;BME280;38537;47.226;39.702;2023-08-17T02:39:20;100621.69;;;23.97;50.28
52651;BME280;38537;47.226;39.702;2023-08-17T02:41:47;100624.56;;;23.97;50.27
52651;BME280;38537;47.226;39.702;2023-08-17T02:44:16;100627.84;;;23.99;50.61
52651;BME280;38537;47.226;39.702;2023-08-17T02:46:43;100626.94;;;23.91;50.49
52651;BME280;38537;47.226;39.702;2023-08-17T02:49:10;100601.22;;;23.87;50.35
52651;BME280;38537;47.226;39.702;2023-08-17T02:51:38;100633.16;;;24.00;50.60
52651;BME280;38537;47.226;39.702;2023-08-17T02:54:05;100599.53;;;23.83;50.50
52651;BME280;38537;47.226;39.702;2023-08-17T02:56:32;100624.03;;;23.87;50.78
52651;BME280;38537;47.226;39.702;2023-08-17T02:59:00;100629.75;;;23.87;50.88
52651;BME280;38537;47.226;39.702;2023-08-17T03:01:27;100601.56;;;23.82;50.75
52651;BME280;38537;47.226;39.702;2023-08-17T03:03:56;100622.41;;;23.86;51.20
52651;BME280;38537;47.226;39.702;2023-08-17T03:06:27;100624.00;;;23.84;51.29
52651;BME280;38537;47.226;39.702;2023-08-17T03:08:55;100628.00;;;23.76;51.19
52651;BME280;38537;47.226;39.702;2023-08-17T03:11:22;100625.25;;;23.86;51.10
52651;BME280;38537;47.226;39.702;2023-08-17T03:13:50;100632.94;;;23.82;51.06
52651;BME280;38537;47.226;39.702;2023-08-17T03:16:17;100620.34;;;23.83;51.10
52651;BME280;38537;47.226;39.702;2023-08-17T03:18:45;100645.34;;;23.97;51.41
52651;BME280;38537;47.226;39.702;2023-08-17T03:21:12;100619.94;;;23.81;51.33
52651;BME280;38537;47.226;39.702;2023-08-17T03:23:40;100645.31;;;23.93;51.24
52651;BME280;38537;47.226;39.702;2023-08-17T03:26:07;100640.41;;;23.94;51.03
52651;BME280;38537;47.226;39.702;2023-08-17T03:28:35;100639.22;;;23.95;51.54
52651;BME280;38537;47.226;39.702;2023-08-17T03:31:03;100630.56;;;23.88;51.38
52651;BME280;38537;47.226;39.702;2023-08-17T03:33:31;100620.31;;;23.80;51.40
52651;BME280;38537;47.226;39.702;2023-08-17T03:36:02;100620.34;;;23.83;51.37
52651;BME280;38537;47.226;39.702;2023-08-17T03:38:29;100641.72;;;24.00;51.40
52651;BME280;38537;47.226;39.702;2023-08-17T03:40:57;100644.56;;;24.04;51.35
52651;BME280;38537;47.226;39.702;2023-08-17T03:43:25;100655.19;;;24.07;51.09
52651;BME280;38537;47.226;39.702;2023-08-17T03:45:54;100633.16;;;24.00;51.49
52651;BME280;38537;47.226;39.702;2023-08-17T03:48:21;100643.81;;;24.10;51.43
52651;BME280;38537;47.226;39.702;2023-08-17T03:50:54;100638.09;;;24.07;51.26
52651;BME280;38537;47.226;39.702;2023-08-17T03:53:21;100648.81;;;24.20;51.06
52651;BME280;38537;47.226;39.702;2023-08-17T03:55:50;100636.53;;;24.13;51.05
52651;BME280;38537;47.226;39.702;2023-08-17T03:58:18;100630.41;;;24.14;50.95
52651;BME280;38537;47.226;39.702;2023-08-17T04:00:50;100633.75;;;24.20;51.33
52651;BME280;38537;47.226;39.702;2023-08-17T04:03:23;100636.63;;;24.23;51.17
52651;BME280;38537;47.226;39.702;2023-08-17T04:05:51;100652.56;;;24.28;51.00
52651;BME280;38537;47.226;39.702;2023-08-17T04:08:20;100636.66;;;24.27;50.96
52651;BME280;38537;47.226;39.702;2023-08-17T04:10:47;100658.44;;;24.42;50.68
52651;BME280;38537;47.226;39.702;2023-08-17T04:13:14;100661.31;;;24.46;50.79
52651;BME280;38537;47.226;39.702;2023-08-17T04:15:42;100637.16;;;24.36;50.74
52651;BME280;38537;47.226;39.702;2023-08-17T04:18:10;100634.28;;;24.33;50.91
52651;BME280;38537;47.226;39.702;2023-08-17T04:20:37;100627.75;;;24.32;50.47
52651;BME280;38537;47.226;39.702;2023-08-17T04:23:04;100652.38;;;24.54;50.69
52651;BME280;38537;47.226;39.702;2023-08-17T04:25:33;100659.34;;;24.57;50.70
52651;BME280;38537;47.226;39.702;2023-08-17T04:28:00;100666.38;;;24.67;50.45
52651;BME280;38537;47.226;39.702;2023-08-17T04:30:28;100656.97;;;24.70;50.63
52651;BME280;38537;47.226;39.702;2023-08-17T04:33:00;100662.72;;;24.73;50.25
52651;BME280;38537;47.226;39.702;2023-08-17T04:35:27;100663.19;;;24.82;50.19
52651;BME280;38537;47.226;39.702;2023-08-17T04:37:55;100659.91;;;24.77;49.86
52651;BME280;38537;47.226;39.702;2023-08-17T04:40:22;100662.38;;;24.82;49.67
52651;BME280;38537;47.226;39.702;2023-08-17T04:42:51;100659.25;;;24.98;49.73
52651;BME280;38537;47.226;39.702;2023-08-17T04:45:21;100675.22;;;25.06;49.62
52651;BME280;38537;47.226;39.702;2023-08-17T04:47:49;100678.06;;;25.02;50.01
52651;BME280;38537;47.226;39.702;2023-08-17T04:50:17;100667.84;;;25.01;49.88
52651;BME280;38537;47.226;39.702;2023-08-17T04:52:45;100681.72;;;25.03;49.67
52651;BME280;38537;47.226;39.702;2023-08-17T04:55:14;100685.44;;;25.07;49.92
52651;BME280;38537;47.226;39.702;2023-08-17T04:57:42;100683.03;;;25.16;49.56
52651;BME280;38537;47.226;39.702;2023-08-17T05:00:14;100659.28;;;25.05;50.09
52651;BME280;38537;47.226;39.702;2023-08-17T05:02:42;100675.69;;;25.18;49.73
52651;BME280;38537;47.226;39.702;2023-08-17T05:05:10;100672.81;;;25.18;49.71
52651;BME280;38537;47.226;39.702;2023-08-17T05:07:37;100663.47;;;25.21;49.86
52651;BME280;38537;47.226;39.702;2023-08-17T05:10:05;100663.50;;;25.28;49.36
52651;BME280;38537;47.226;39.702;2023-08-17T05:12:37;100653.25;;;25.20;49.38
52651;BME280;38537;47.226;39.702;2023-08-17T05:15:05;100656.16;;;25.35;49.67
52651;BME280;38537;47.226;39.702;2023-08-17T05:17:35;100665.59;;;25.42;49.35
52651;BME280;38537;47.226;39.702;2023-08-17T05:20:03;100663.16;;;25.44;49.11
52651;BME280;38537;47.226;39.702;2023-08-17T05:22:31;100674.63;;;25.58;49.15
52651;BME280;38537;47.226;39.702;2023-08-17T05:24:59;100686.06;;;25.55;48.90
52651;BME280;38537;47.226;39.702;2023-08-17T05:27:29;100648.84;;;25.41;48.87
52651;BME280;38537;47.226;39.702;2023-08-17T05:29:56;100675.47;;;25.59;48.66
52651;BME280;38537;47.226;39.702;2023-08-17T05:32:23;100666.88;;;25.59;49.07
52651;BME280;38537;47.226;39.702;2023-08-17T05:34:53;100680.00;;;25.64;48.60
52651;BME280;38537;47.226;39.702;2023-08-17T05:37:20;100671.06;;;25.72;48.57
52651;BME280;38537;47.226;39.702;2023-08-17T05:39:49;100698.06;;;25.89;48.68
52651;BME280;38537;47.226;39.702;2023-08-17T05:42:16;100657.16;;;25.71;48.60
52651;BME280;38537;47.226;39.702;2023-08-17T05:44:44;100684.19;;;25.91;48.69
52651;BME280;38537;47.226;39.702;2023-08-17T05:47:12;100671.91;;;25.90;48.46
52651;BME280;38537;47.226;39.702;2023-08-17T05:49:43;100668.66;;;25.99;48.58
52651;BME280;38537;47.226;39.702;2023-08-17T05:52:12;100664.97;;;26.02;48.18
52651;BME280;38537;47.226;39.702;2023-08-17T05:54:39;100673.19;;;26.11;48.19
52651;BME280;38537;47.226;39.702;2023-08-17T05:57:07;100676.88;;;26.15;48.06
52651;BME280;38537;47.226;39.702;2023-08-17T05:59:34;100675.66;;;26.19;48.33
52651;BME280;38537;47.226;39.702;2023-08-17T06:02:01;100685.06;;;26.27;48.10
52651;BME280;38537;47.226;39.702;2023-08-17T06:04:28;100689.19;;;26.29;47.92
52651;BME280;38537;47.226;39.702;2023-08-17T06:06:56;100664.19;;;26.23;47.86
52651;BME280;38537;47.226;39.702;2023-08-17T06:09:23;100672.00;;;26.29;47.53
52651;BME280;38537;47.226;39.702;2023-08-17T06:11:50;100661.31;;;26.23;47.77
52651;BME280;38537;47.226;39.702;2023-08-17T06:14:20;100667.50;;;26.32;47.85
52651;BME280;38537;47.226;39.702;2023-08-17T06:16:47;100667.50;;;26.36;47.70
52651;BME280;38537;47.226;39.702;2023-08-17T06:19:15;100669.97;;;26.37;47.62
52651;BME280;38537;47.226;39.702;2023-08-17T06:21:42;100657.28;;;26.38;47.75
52651;BME280;38537;47.226;39.702;2023-08-17T06:24:10;100670.34;;;26.46;47.69
52651;BME280;38537;47.226;39.702;2023-08-17T06:26:37;100667.91;;;26.55;47.88
52651;BME280;38537;47.226;39.702;2023-08-17T06:29:05;100691.22;;;26.64;47.37
52651;BME280;38537;47.226;39.702;2023-08-17T06:31:33;100686.34;;;26.61;47.27
52651;BME280;38537;47.226;39.702;2023-08-17T06:34:00;100673.66;;;26.59;47.43
52651;BME280;38537;47.226;39.702;2023-08-17T06:36:30;100674.84;;;26.65;47.50
52651;BME280;38537;47.226;39.702;2023-08-17T06:38:59;100685.91;;;26.67;47.09
52651;BME280;38537;47.226;39.702;2023-08-17T06:41:26;100664.25;;;26.62;47.09
52651;BME280;38537;47.226;39.702;2023-08-17T06:43:55;100666.66;;;26.63;47.21
52651;BME280;38537;47.226;39.702;2023-08-17T06:46:22;100662.56;;;26.64;47.19
52651;BME280;38537;47.226;39.702;2023-08-17T06:48:49;100671.56;;;26.74;47.03
52651;BME280;38537;47.226;39.702;2023-08-17T06:51:17;100675.66;;;26.73;46.59
52651;BME280;38537;47.226;39.702;2023-08-17T06:53:44;100670.34;;;26.68;46.29
52651;BME280;38537;47.226;39.702;2023-08-17T06:56:12;100660.53;;;26.72;46.58
52651;BME280;38537;47.226;39.702;2023-08-17T06:58:39;100682.59;;;26.93;46.18
52651;BME280;38537;47.226;39.702;2023-08-17T07:01:07;100679.34;;;26.94;46.34
52651;BME280;38537;47.226;39.702;2023-08-17T07:03:34;100652.75;;;26.80;46.12
52651;BME280;38537;47.226;39.702;2023-08-17T07:06:01;100639.66;;;26.68;45.60
52651;BME280;38537;47.226;39.702;2023-08-17T07:08:30;100667.44;;;26.85;45.33
52651;BME280;38537;47.226;39.702;2023-08-17T07:10:57;100677.72;;;26.97;45.75
52651;BME280;38537;47.226;39.702;2023-08-17T07:13:24;100657.25;;;26.81;45.74
52651;BME280;38537;47.226;39.702;2023-08-17T07:15:52;100667.84;;;26.91;45.94
52651;BME280;38537;47.226;39.702;2023-08-17T07:18:20;100645.34;;;26.93;45.09
52651;BME280;38537;47.226;39.702;2023-08-17T07:20:50;100664.16;;;27.08;45.28
52651;BME280;38537;47.226;39.702;2023-08-17T07:23:18;100662.97;;;27.06;45.20
52651;BME280;38537;47.226;39.702;2023-08-17T07:25:46;100677.19;;;27.30;45.03
52651;BME280;38537;47.226;39.702;2023-08-17T07:28:13;100656.75;;;27.21;44.36
52651;BME280;38537;47.226;39.702;2023-08-17T07:30:42;100669.44;;;27.27;44.55
52651;BME280;38537;47.226;39.702;2023-08-17T07:33:13;100662.84;;;27.38;43.91
52651;BME280;38537;47.226;39.702;2023-08-17T07:35:43;100633.75;;;27.36;43.53
52651;BME280;38537;47.226;39.702;2023-08-17T07:38:10;100650.53;;;27.44;43.20
52651;BME280;38537;47.226;39.702;2023-08-17T07:40:38;100684.94;;;27.48;42.73
52651;BME280;38537;47.226;39.702;2023-08-17T07:43:05;100660.34;;;27.47;42.84
52651;BME280;38537;47.226;39.702;2023-08-17T07:45:32;100656.25;;;27.48;42.50
52651;BME280;38537;47.226;39.702;2023-08-17T07:48:00;100663.59;;;27.59;42.84
52651;BME280;38537;47.226;39.702;2023-08-17T07:50:28;100645.13;;;27.57;42.70
52651;BME280;38537;47.226;39.702;2023-08-17T07:52:55;100638.91;;;27.73;42.86
52651;BME280;38537;47.226;39.702;2023-08-17T07:55:26;100652.94;;;27.60;41.91
52651;BME280;38537;47.226;39.702;2023-08-17T07:57:54;100638.63;;;27.46;41.91
52651;BME280;38537;47.226;39.702;2023-08-17T08:00:21;100642.28;;;27.60;42.50
52651;BME280;38537;47.226;39.702;2023-08-17T08:02:48;100625.47;;;27.59;41.91
52651;BME280;38537;47.226;39.702;2023-08-17T08:05:16;100643.38;;;27.81;41.80
52651;BME280;38537;47.226;39.702;2023-08-17T08:07:43;100626.56;;;27.83;41.69
52651;BME280;38537;47.226;39.702;2023-08-17T08:10:11;100642.84;;;28.00;41.01
52651;BME280;38537;47.226;39.702;2023-08-17T08:12:38;100632.22;;;27.93;40.11
52651;BME280;38537;47.226;39.702;2023-08-17T08:15:06;100636.28;;;28.03;40.24
52651;BME280;38537;47.226;39.702;2023-08-17T08:17:33;100629.31;;;28.01;40.39
52651;BME280;38537;47.226;39.702;2023-08-17T08:20:01;100616.19;;;27.99;40.42
52651;BME280;38537;47.226;39.702;2023-08-17T08:22:31;100632.13;;;28.08;40.21
52651;BME280;38537;47.226;39.702;2023-08-17T08:24:59;100620.69;;;28.04;40.65
52651;BME280;38537;47.226;39.702;2023-08-17T08:27:28;100614.09;;;28.07;40.71
52651;BME280;38537;47.226;39.702;2023-08-17T08:29:56;100605.91;;;28.06;40.17
52651;BME280;38537;47.226;39.702;2023-08-17T08:32:23;100626.31;;;28.15;40.18
52651;BME280;38537;47.226;39.702;2023-08-17T08:34:50;100606.19;;;28.25;39.93
52651;BME280;38537;47.226;39.702;2023-08-17T08:37:19;100616.78;;;28.32;39.25
52651;BME280;38537;47.226;39.702;2023-08-17T08:39:50;100625.28;;;28.46;38.81
52651;BME280;38537;47.226;39.702;2023-08-17T08:42:20;100601.66;;;28.28;38.90
52651;BME280;38537;47.226;39.702;2023-08-17T08:44:49;100632.72;;;28.40;39.39
52651;BME280;38537;47.226;39.702;2023-08-17T08:47:17;100631.47;;;28.41;39.76
52651;BME280;38537;47.226;39.702;2023-08-17T08:52:27;100627.00;;;28.37;40.34
52651;BME280;38537;47.226;39.702;2023-08-17T08:55:03;100618.34;;;28.40;39.89
52651;BME280;38537;47.226;39.702;2023-08-17T08:57:31;100630.94;;;28.57;39.39
52651;BME280;38537;47.226;39.702;2023-08-17T08:59:59;100619.78;;;28.62;39.64
52651;BME280;38537;47.226;39.702;2023-08-17T09:02:31;100630.38;;;28.73;39.31
52651;BME280;38537;47.226;39.702;2023-08-17T09:05:00;100633.34;;;28.62;39.02
52651;BME280;38537;47.226;39.702;2023-08-17T09:07:30;100604.69;;;28.55;39.57
52651;BME280;38537;47.226;39.702;2023-08-17T09:09:59;100612.50;;;28.54;39.45
52651;BME280;38537;47.226;39.702;2023-08-17T09:12:30;100632.50;;;28.65;39.77
52651;BME280;38537;47.226;39.702;2023-08-17T09:15:07;100613.22;;;28.62;39.53
52651;BME280;38537;47.226;39.702;2023-08-17T09:17:35;100623.44;;;28.66;40.00
52651;BME280;38537;47.226;39.702;2023-08-17T09:20:04;100612.78;;;28.63;39.63
52651;BME280;38537;47.226;39.702;2023-08-17T09:22:43;100612.31;;;28.72;39.08
52651;BME280;38537;47.226;39.702;2023-08-17T09:25:10;100621.66;;;28.80;39.59
52651;BME280;38537;47.226;39.702;2023-08-17T09:27:38;100595.44;;;28.74;39.24
52651;BME280;38537;47.226;39.702;2023-08-17T09:30:08;100624.50;;;28.87;39.43
52651;BME280;38537;47.226;39.702;2023-08-17T09:32:36;100620.84;;;28.83;39.30
52651;BME280;38537;47.226;39.702;2023-08-17T09:35:05;100604.06;;;28.74;39.40
52651;BME280;38537;47.226;39.702;2023-08-17T09:37:33;100616.78;;;28.77;40.53
52651;BME280;38537;47.226;39.702;2023-08-17T09:40:01;100602.41;;;28.77;40.33
52651;BME280;38537;47.226;39.702;2023-08-17T09:42:35;100624.00;;;28.95;40.54
52651;BME280;38537;47.226;39.702;2023-08-17T09:45:03;100612.91;;;28.94;40.55
52651;BME280;38537;47.226;39.702;2023-08-17T09:47:33;100624.09;;;28.85;40.39
52651;BME280;38537;47.226;39.702;2023-08-17T09:50:00;100603.25;;;28.74;40.63
52651;BME280;38537;47.226;39.702;2023-08-17T09:52:29;100602.06;;;28.71;40.45
52651;BME280;38537;47.226;39.702;2023-08-17T09:54:58;100596.69;;;28.73;40.66
52651;BME280;38537;47.226;39.702;2023-08-17T09:57:35;100613.03;;;28.80;40.27
52651;BME280;38537;47.226;39.702;2023-08-17T10:00:03;100610.16;;;28.83;40.30
52651;BME280;38537;47.226;39.702;2023-08-17T10:02:33;100613.31;;;28.96;40.29
52651;BME280;38537;47.226;39.702;2023-08-17T10:05:04;100627.22;;;29.01;39.72
52651;BME280;38537;47.226;39.702;2023-08-17T10:07:34;100604.06;;;28.74;39.92
52651;BME280;38537;47.226;39.702;2023-08-17T10:10:04;100614.63;;;28.88;40.34
52651;BME280;38537;47.226;39.702;2023-08-17T10:13:09;100607.16;;;28.94;40.10
52651;BME280;38537;47.226;39.702;2023-08-17T10:16:06;100603.84;;;28.99;39.87
52651;BME280;38537;47.226;39.702;2023-08-17T10:21:20;100589.75;;;29.08;39.50
52651;BME280;38537;47.226;39.702;2023-08-17T10:23:49;100588.41;;;29.16;38.99
52651;BME280;38537;47.226;39.702;2023-08-17T10:26:22;100592.53;;;29.15;38.85
52651;BME280;38537;47.226;39.702;2023-08-17T10:28:50;100600.69;;;29.20;39.02
52651;BME280;38537;47.226;39.702;2023-08-17T10:31:17;100602.31;;;29.21;38.74
52651;BME280;38537;47.226;39.702;2023-08-17T10:33:46;100604.47;;;29.14;38.58
52651;BME280;38537;47.226;39.702;2023-08-17T10:36:15;100602.44;;;29.11;38.45
52651;BME280;38537;47.226;39.702;2023-08-17T10:38:42;100609.19;;;28.97;38.22
52651;BME280;38537;47.226;39.702;2023-08-17T10:41:14;100599.31;;;28.98;38.04
52651;BME280;38537;47.226;39.702;2023-08-17T10:46:32;100582.00;;;29.02;37.89
52651;BME280;38537;47.226;39.702;2023-08-17T10:49:04;100588.06;;;29.11;37.59
52651;BME280;38537;47.226;39.702;2023-08-17T10:51:34;100596.19;;;29.19;37.40
52651;BME280;38537;47.226;39.702;2023-08-17T10:54:03;100601.50;;;29.21;38.03
52651;BME280;38537;47.226;39.702;2023-08-17T10:56:32;100599.78;;;29.27;37.49
52651;BME280;38537;47.226;39.702;2023-08-17T10:59:01;100574.31;;;29.25;37.65
52651;BME280;38537;47.226;39.702;2023-08-17T11:01:36;100584.47;;;29.33;38.01
52651;BME280;38537;47.226;39.702;2023-08-17T11:04:16;100589.91;;;29.28;38.06
52651;BME280;38537;47.226;39.702;2023-08-17T11:06:44;100570.09;;;29.33;38.11
52651;BME280;38537;47.226;39.702;2023-08-17T11:09:16;100575.78;;;29.41;37.85
52651;BME280;38537;47.226;39.702;2023-08-17T11:11:52;100579.81;;;29.47;37.13
52651;BME280;38537;47.226;39.702;2023-08-17T11:14:21;100581.00;;;29.49;37.39
52651;BME280;38537;47.226;39.702;2023-08-17T11:16:48;100578.25;;;29.39;37.09
52651;BME280;38537;47.226;39.702;2023-08-17T11:19:18;100580.19;;;29.49;37.12
52651;BME280;38537;47.226;39.702;2023-08-17T11:21:45;100547.75;;;29.45;37.48
52651;BME280;38537;47.226;39.702;2023-08-17T11:24:12;100554.19;;;29.56;37.08
52651;BME280;38537;47.226;39.702;2023-08-17T11:26:40;100544.03;;;29.48;36.95
52651;BME280;38537;47.226;39.702;2023-08-17T11:29:08;100546.81;;;29.55;36.54
52651;BME280;38537;47.226;39.702;2023-08-17T11:31:35;100542.81;;;29.45;36.25
52651;BME280;38537;47.226;39.702;2023-08-17T11:34:03;100544.34;;;29.53;36.48
52651;BME280;38537;47.226;39.702;2023-08-17T11:36:30;100548.25;;;29.66;36.64
52651;BME280;38537;47.226;39.702;2023-08-17T11:38:58;100538.31;;;29.71;36.21
52651;BME280;38537;47.226;39.702;2023-08-17T11:41:25;100538.97;;;29.82;35.86
52651;BME280;38537;47.226;39.702;2023-08-17T11:43:54;100544.56;;;29.93;35.56
52651;BME280;38537;47.226;39.702;2023-08-17T11:46:22;100550.75;;;29.91;35.40
52651;BME280;38537;47.226;39.702;2023-08-17T11:48:59;100541.38;;;29.87;35.37
52651;BME280;38537;47.226;39.702;2023-08-17T11:51:32;100545.84;;;29.88;34.58
52651;BME280;38537;47.226;39.702;2023-08-17T11:54:00;100545.81;;;29.92;34.97
52651;BME280;38537;47.226;39.702;2023-08-17T11:56:30;100543.09;;;29.81;34.66
52651;BME280;38537;47.226;39.702;2023-08-17T11:58:57;100538.16;;;29.82;34.35
52651;BME280;38537;47.226;39.702;2023-08-17T12:01:24;100521.09;;;29.67;34.07
52651;BME280;38537;47.226;39.702;2023-08-17T12:03:53;100529.19;;;29.76;33.77
52651;BME280;38537;47.226;39.702;2023-08-17T12:06:22;100514.75;;;29.80;33.90
52651;BME280;38537;47.226;39.702;2023-08-17T12:08:50;100526.03;;;29.94;34.10
52651;BME280;38537;47.226;39.702;2023-08-17T12:11:17;100539.53;;;30.00;33.77
52651;BME280;38537;47.226;39.702;2023-08-17T12:13:52;100557.84;;;29.87;33.38
52651;BME280;38537;47.226;39.702;2023-08-17T12:16:22;100562.34;;;29.88;33.73
52651;BME280;38537;47.226;39.702;2023-08-17T12:18:51;100540.47;;;29.90;34.16
52651;BME280;38537;47.226;39.702;2023-08-17T12:21:20;100521.28;;;29.84;34.27
52651;BME280;38537;47.226;39.702;2023-08-17T12:23:49;100524.78;;;29.95;34.66
52651;BME280;38537;47.226;39.702;2023-08-17T12:26:22;100508.81;;;29.90;34.41
52651;BME280;38537;47.226;39.702;2023-08-17T12:28:50;100507.94;;;29.93;34.50
52651;BME280;38537;47.226;39.702;2023-08-17T12:31:21;100536.00;;;30.13;34.95
52651;BME280;38537;47.226;39.702;2023-08-17T12:33:50;100527.94;;;30.04;34.16
52651;BME280;38537;47.226;39.702;2023-08-17T12:36:18;100518.56;;;30.00;34.53
52651;BME280;38537;47.226;39.702;2023-08-17T12:38:47;100540.28;;;30.05;34.91
52651;BME280;38537;47.226;39.702;2023-08-17T12:41:16;100529.69;;;29.98;34.73
52651;BME280;38537;47.226;39.702;2023-08-17T12:43:45;100509.22;;;29.89;35.16
52651;BME280;38537;47.226;39.702;2023-08-17T12:46:12;100534.91;;;30.07;34.51
52651;BME280;38537;47.226;39.702;2023-08-17T12:48:39;100525.00;;;30.08;34.85
52651;BME280;38537;47.226;39.702;2023-08-17T12:51:07;100532.84;;;30.07;34.86
52651;BME280;38537;47.226;39.702;2023-08-17T12:53:34;100519.69;;;30.06;35.15
52651;BME280;38537;47.226;39.702;2023-08-17T12:56:02;100508.59;;;30.05;34.20
52651;BME280;38537;47.226;39.702;2023-08-17T12:58:29;100526.00;;;30.21;34.13
52651;BME280;38537;47.226;39.702;2023-08-17T13:00:56;100533.72;;;30.27;34.49